LPMA/FNC METAR and TAF weather

Enter ICAO airport designator
Station Type Date Time Source
LPMA METAR 2019/10/23 08:00 UTC NOAA

LPMA 230800Z 33005KT 300V360 9999 FEW018 SCT030 18/11 Q1019


Station Type Date Time Source
LPMA Decoded METAR 2019/10/23 08:00 UTC NOAA

Aeroporto Da Madeira, Portugal (LPMA) 32-41-52N 016-46-28W
Oct 23, 2019 - 04:00 AM EDT / 2019.10.23 0800 UTC
Wind: from the NNW (330 degrees) at 6 MPH (5 KT) (direction variable):0
Visibility: greater than 7 mile(s):0
Sky conditions: partly cloudy
Temperature: 64 F (18 C)
Dew Point: 51 F (11 C)
Relative Humidity: 63%
Pressure (altimeter): 30.09 in. Hg (1019 hPa)
ob: LPMA 230800Z 33005KT 300V360 9999 FEW018 SCT030 18/11 Q1019
cycle: 8

Station Type Date Time Source
LPMA TAF 2019/10/23 06:18 UTC NOAA

TAF LPMA 230500Z 2306/2406 35008KT 9999 SCT015
TEMPO 2306/2310 VRB05KT BKN015
BECMG 2310/2312 03010KT
TEMPO 2310/2406 FEW015 BKN033
BECMG 2318/2321 35005KT
TEMPO 2322/2405 VRB05KT

Example: see airport list